createdAt,value
2018-12-15T00:00:58.204Z,1018.57
2018-12-15T00:01:58.227Z,1018.60
2018-12-15T00:02:58.248Z,1018.56
2018-12-15T00:03:58.270Z,1018.61
2018-12-15T00:04:58.289Z,1018.61
2018-12-15T00:05:58.312Z,1018.65
2018-12-15T00:06:58.330Z,1018.64
2018-12-15T00:07:58.353Z,1018.70
2018-12-15T00:08:58.376Z,1018.66
2018-12-15T00:09:58.394Z,1018.67
2018-12-15T00:10:58.418Z,1018.63
2018-12-15T00:11:58.438Z,1018.62
2018-12-15T00:12:58.457Z,1018.63
2018-12-15T00:13:58.483Z,1018.65
2018-12-15T00:14:58.501Z,1018.66
2018-12-15T00:15:58.523Z,1018.64
2018-12-15T00:16:58.543Z,1018.66
2018-12-15T00:17:58.567Z,1018.68
2018-12-15T00:18:58.586Z,1018.68
2018-12-15T00:19:58.610Z,1018.67
2018-12-15T00:20:58.628Z,1018.67
2018-12-15T00:21:58.650Z,1018.68
2018-12-15T00:22:58.672Z,1018.67
2018-12-15T00:23:58.693Z,1018.68
2018-12-15T00:24:58.714Z,1018.64
2018-12-15T00:25:58.733Z,1018.69
2018-12-15T00:26:58.758Z,1018.70
2018-12-15T00:27:58.778Z,1018.70
2018-12-15T00:28:58.804Z,1018.73
2018-12-15T00:29:58.822Z,1018.72
2018-12-15T00:30:58.841Z,1018.74
2018-12-15T00:31:58.864Z,1018.79
2018-12-15T00:32:58.938Z,1018.76
2018-12-15T00:33:58.910Z,1018.74
2018-12-15T00:34:58.928Z,1018.76
2018-12-15T00:35:58.950Z,1018.82
2018-12-15T00:36:58.970Z,1018.81
2018-12-15T00:37:58.992Z,1018.80
2018-12-15T00:38:59.011Z,1018.85
2018-12-15T00:39:59.039Z,1018.80
2018-12-15T00:40:59.053Z,1018.82
2018-12-15T00:41:59.077Z,1018.82
2018-12-15T00:42:59.096Z,1018.83
2018-12-15T00:43:59.120Z,1018.86
2018-12-15T00:44:59.138Z,1018.88
2018-12-15T00:45:59.163Z,1018.82
2018-12-15T00:46:59.183Z,1018.79
2018-12-15T00:47:59.203Z,1018.81
2018-12-15T00:48:59.225Z,1018.81
2018-12-15T00:49:59.245Z,1018.82
2018-12-15T00:50:59.270Z,1018.86
2018-12-15T00:51:59.287Z,1018.86
2018-12-15T00:52:59.311Z,1018.84
2018-12-15T00:53:59.332Z,1018.93
2018-12-15T00:54:59.351Z,1018.94
2018-12-15T00:55:59.372Z,1018.97
2018-12-15T00:56:59.396Z,1018.94
2018-12-15T00:57:59.415Z,1018.97
2018-12-15T00:58:59.436Z,1019.03
2018-12-15T00:59:59.460Z,1018.98
2018-12-15T01:00:59.482Z,1019.07
2018-12-15T01:01:59.499Z,1019.03
2018-12-15T01:02:59.524Z,1019.01
2018-12-15T01:03:59.546Z,1019.05
2018-12-15T01:04:59.567Z,1019.03
2018-12-15T01:05:59.587Z,1019.08
2018-12-15T01:06:59.607Z,1019.07
2018-12-15T01:07:59.628Z,1019.09
2018-12-15T01:08:59.652Z,1019.13
2018-12-15T01:09:59.671Z,1019.09
2018-12-15T01:10:59.695Z,1019.11
2018-12-15T01:11:59.716Z,1019.09
2018-12-15T01:12:59.737Z,1019.15
2018-12-15T01:13:59.761Z,1019.13
2018-12-15T01:14:59.779Z,1019.12
2018-12-15T01:15:59.799Z,1019.17
2018-12-15T01:16:59.822Z,1019.15
2018-12-15T01:17:59.848Z,1019.05
2018-12-15T01:18:59.862Z,1019.11
2018-12-15T01:19:59.886Z,1019.08
2018-12-15T01:20:59.907Z,1019.09
2018-12-15T01:21:59.928Z,1019.07
2018-12-15T01:22:59.948Z,1019.05
2018-12-15T01:23:59.972Z,1019.08
2018-12-15T01:24:59.992Z,1019.10
2018-12-15T01:26:00.013Z,1019.16
2018-12-15T01:27:00.031Z,1019.16
2018-12-15T01:28:00.056Z,1019.15
2018-12-15T01:29:00.080Z,1019.21
2018-12-15T01:30:00.096Z,1019.19
2018-12-15T01:31:00.120Z,1019.19
2018-12-15T01:32:00.140Z,1019.26
2018-12-15T01:33:00.161Z,1019.23
2018-12-15T01:34:00.180Z,1019.25
2018-12-15T01:35:00.205Z,1019.25
2018-12-15T01:36:00.224Z,1019.23
2018-12-15T01:37:00.248Z,1019.21
2018-12-15T01:38:00.269Z,1019.21
2018-12-15T01:39:00.288Z,1019.25
2018-12-15T01:40:00.312Z,1019.25
2018-12-15T01:41:00.335Z,1019.19
2018-12-15T01:42:00.417Z,1019.23
2018-12-15T01:43:00.374Z,1019.22
2018-12-15T01:44:00.397Z,1019.20
2018-12-15T01:45:00.418Z,1019.22
2018-12-15T01:46:00.437Z,1019.25
2018-12-15T01:47:00.461Z,1019.20
2018-12-15T01:48:00.482Z,1019.21
2018-12-15T01:49:00.503Z,1019.25
2018-12-15T01:50:00.525Z,1019.23
2018-12-15T01:51:00.541Z,1019.24
2018-12-15T01:52:00.568Z,1019.25
2018-12-15T01:53:00.588Z,1019.27
2018-12-15T01:54:00.605Z,1019.27
2018-12-15T01:55:00.627Z,1019.21
2018-12-15T01:56:00.652Z,1019.19
2018-12-15T01:57:00.672Z,1019.22
2018-12-15T01:58:00.696Z,1019.23
2018-12-15T01:59:00.715Z,1019.19
2018-12-15T02:00:00.733Z,1019.18
2018-12-15T02:01:00.757Z,1019.17
2018-12-15T02:02:00.778Z,1019.22
2018-12-15T02:03:00.803Z,1019.20
2018-12-15T02:04:00.864Z,1019.17
2018-12-15T02:05:00.842Z,1019.22
2018-12-15T02:06:00.916Z,1019.22
2018-12-15T02:07:00.885Z,1019.23
2018-12-15T02:08:00.903Z,1019.18
2018-12-15T02:09:00.927Z,1019.22
2018-12-15T02:10:00.948Z,1019.24
2018-12-15T02:11:00.970Z,1019.25
2018-12-15T02:12:00.989Z,1019.32
2018-12-15T02:13:01.009Z,1019.32
2018-12-15T02:14:01.031Z,1019.32
2018-12-15T02:15:01.052Z,1019.37
2018-12-15T02:16:01.073Z,1019.39
2018-12-15T02:17:01.097Z,1019.32
2018-12-15T02:18:01.118Z,1019.36
2018-12-15T02:19:01.139Z,1019.37
2018-12-15T02:20:01.159Z,1019.33
2018-12-15T02:21:01.180Z,1019.35
2018-12-15T02:22:01.204Z,1019.35
2018-12-15T02:23:01.222Z,1019.42
2018-12-15T02:24:01.247Z,1019.32
2018-12-15T02:25:01.266Z,1019.36
2018-12-15T02:26:01.286Z,1019.39
2018-12-15T02:27:01.307Z,1019.40
2018-12-15T02:28:01.328Z,1019.37
2018-12-15T02:29:01.350Z,1019.41
2018-12-15T02:30:01.375Z,1019.37
2018-12-15T02:31:01.394Z,1019.34
2018-12-15T02:32:01.415Z,1019.39
2018-12-15T02:33:01.434Z,1019.35
2018-12-15T02:34:01.457Z,1019.27
2018-12-15T02:35:01.476Z,1019.30
2018-12-15T02:36:01.501Z,1019.27
2018-12-15T02:37:01.520Z,1019.34
2018-12-15T02:38:01.542Z,1019.29
2018-12-15T02:39:01.563Z,1019.31
2018-12-15T02:40:01.585Z,1019.30
2018-12-15T02:41:01.605Z,1019.25
2018-12-15T02:42:01.628Z,1019.33
2018-12-15T02:43:01.654Z,1019.33
2018-12-15T02:44:01.667Z,1019.37
2018-12-15T02:45:01.689Z,1019.33
2018-12-15T02:46:01.710Z,1019.34
2018-12-15T02:47:01.734Z,1019.34
2018-12-15T02:48:01.754Z,1019.30
2018-12-15T02:49:01.774Z,1019.27
2018-12-15T02:50:01.792Z,1019.31
2018-12-15T02:51:01.817Z,1019.29
2018-12-15T02:52:01.838Z,1019.35
2018-12-15T02:53:01.858Z,1019.38
2018-12-15T02:54:01.878Z,1019.33
2018-12-15T02:55:01.911Z,1019.39
2018-12-15T02:56:01.921Z,1019.37
2018-12-15T02:57:01.942Z,1019.33
2018-12-15T02:58:01.964Z,1019.37
2018-12-15T02:59:01.985Z,1019.34
2018-12-15T03:00:02.018Z,1019.34
2018-12-15T03:01:02.026Z,1019.35
2018-12-15T03:02:02.050Z,1019.34
2018-12-15T03:03:02.072Z,1019.33
2018-12-15T03:04:02.091Z,1019.27
2018-12-15T03:05:02.117Z,1019.32
2018-12-15T03:06:02.134Z,1019.32
2018-12-15T03:07:02.152Z,1019.27
2018-12-15T03:08:02.176Z,1019.29
2018-12-15T03:09:02.196Z,1019.28
2018-12-15T03:10:02.278Z,1019.29
2018-12-15T03:11:02.240Z,1019.27
2018-12-15T03:12:02.260Z,1019.27
2018-12-15T03:13:02.281Z,1019.29
2018-12-15T03:14:02.301Z,1019.30
2018-12-15T03:15:02.323Z,1019.31
2018-12-15T03:16:02.341Z,1019.30
2018-12-15T03:17:02.363Z,1019.25
2018-12-15T03:18:02.387Z,1019.25
2018-12-15T03:19:02.411Z,1019.25
2018-12-15T03:20:02.431Z,1019.24
2018-12-15T03:21:02.450Z,1019.19
2018-12-15T03:22:02.470Z,1019.22
2018-12-15T03:23:02.491Z,1019.26
2018-12-15T03:24:02.515Z,1019.18
2018-12-15T03:25:02.530Z,1019.20
2018-12-15T03:26:02.554Z,1019.18
2018-12-15T03:27:02.579Z,1019.18
2018-12-15T03:28:02.594Z,1019.16
2018-12-15T03:29:02.618Z,1019.18
2018-12-15T03:30:02.642Z,1019.17
2018-12-15T03:31:02.661Z,1019.17
2018-12-15T03:32:02.680Z,1019.18
2018-12-15T03:33:02.721Z,1019.18
2018-12-15T03:34:02.720Z,1019.22
2018-12-15T03:35:02.750Z,1019.19
2018-12-15T03:36:02.766Z,1019.22
2018-12-15T03:37:02.787Z,1019.19
2018-12-15T03:38:02.807Z,1019.13
2018-12-15T03:39:02.829Z,1019.13
2018-12-15T03:40:02.852Z,1019.18
2018-12-15T03:41:02.868Z,1019.11
2018-12-15T03:42:02.889Z,1019.16
2018-12-15T03:43:02.911Z,1019.08
2018-12-15T03:44:02.934Z,1019.14
2018-12-15T03:45:02.955Z,1019.12
2018-12-15T03:46:02.977Z,1019.15
2018-12-15T03:47:02.994Z,1019.12
2018-12-15T03:48:03.016Z,1019.07
2018-12-15T03:49:03.038Z,1019.14
2018-12-15T03:50:03.058Z,1019.20
2018-12-15T03:51:03.082Z,1019.15
2018-12-15T03:52:03.172Z,1019.16
2018-12-15T03:53:03.125Z,1019.16
2018-12-15T03:54:03.145Z,1019.20
2018-12-15T03:55:03.167Z,1019.15
2018-12-15T03:56:03.189Z,1019.12
2018-12-15T03:57:03.206Z,1019.15
2018-12-15T03:58:03.227Z,1019.08
2018-12-15T03:59:03.250Z,1019.11
2018-12-15T04:00:03.272Z,1019.07
2018-12-15T04:01:03.293Z,1019.08
2018-12-15T04:02:03.317Z,1019.11
2018-12-15T04:03:03.336Z,1019.06
2018-12-15T04:04:03.354Z,1019.13
2018-12-15T04:05:03.376Z,1019.14
2018-12-15T04:06:03.399Z,1019.12
2018-12-15T04:07:03.419Z,1019.11
2018-12-15T04:08:03.443Z,1019.15
2018-12-15T04:09:03.464Z,1019.14
2018-12-15T04:10:03.502Z,1019.10
2018-12-15T04:11:03.520Z,1019.16
2018-12-15T04:12:03.527Z,1019.10
2018-12-15T04:13:03.544Z,1019.12
2018-12-15T04:14:03.567Z,1019.09
2018-12-15T04:15:03.588Z,1019.09
2018-12-15T04:16:03.613Z,1019.02
2018-12-15T04:17:03.629Z,1019.01
2018-12-15T04:18:03.947Z,1019.07
2018-12-15T04:19:03.673Z,1019.07
2018-12-15T04:20:03.694Z,1019.06
2018-12-15T04:21:03.713Z,1018.98
2018-12-15T04:22:03.736Z,1019.02
2018-12-15T04:23:03.758Z,1019.00
2018-12-15T04:24:03.782Z,1019.02
2018-12-15T04:25:03.801Z,1019.01
2018-12-15T04:26:03.820Z,1018.99
2018-12-15T04:27:03.838Z,1018.92
2018-12-15T04:28:03.863Z,1018.99
2018-12-15T04:29:03.884Z,1019.00
2018-12-15T04:30:03.905Z,1018.97
2018-12-15T04:31:03.925Z,1019.02
2018-12-15T04:32:03.948Z,1019.02
2018-12-15T04:33:03.971Z,1018.92
2018-12-15T04:34:03.986Z,1018.92
2018-12-15T04:35:04.009Z,1018.94
2018-12-15T04:36:04.028Z,1018.92
2018-12-15T04:37:04.051Z,1018.93
2018-12-15T04:38:04.069Z,1018.93
2018-12-15T04:39:04.093Z,1018.95
2018-12-15T04:40:04.116Z,1018.92
2018-12-15T04:41:04.135Z,1018.99
2018-12-15T04:42:04.162Z,1018.92
2018-12-15T04:43:04.177Z,1019.02
2018-12-15T04:44:04.205Z,1018.96
2018-12-15T04:45:04.217Z,1018.95
2018-12-15T04:46:04.240Z,1018.90
2018-12-15T04:47:04.260Z,1018.88
2018-12-15T04:48:10.872Z,1018.86
2018-12-15T04:49:04.304Z,1018.89
2018-12-15T04:50:04.324Z,1018.91
2018-12-15T04:51:04.348Z,1018.91
2018-12-15T04:52:04.367Z,1018.91
2018-12-15T04:53:04.387Z,1018.93
2018-12-15T04:54:04.406Z,1018.90
2018-12-15T04:55:04.426Z,1018.90
2018-12-15T04:56:04.448Z,1018.91
2018-12-15T04:57:04.471Z,1018.85
2018-12-15T04:58:04.488Z,1018.89
2018-12-15T04:59:04.512Z,1018.86
2018-12-15T05:00:04.534Z,1018.88
2018-12-15T05:01:04.554Z,1018.90
2018-12-15T05:02:04.574Z,1018.85
2018-12-15T05:03:04.683Z,1018.87
2018-12-15T05:04:04.618Z,1018.87
2018-12-15T05:05:04.637Z,1018.87
2018-12-15T05:06:04.662Z,1018.84
2018-12-15T05:07:04.679Z,1018.85
2018-12-15T05:08:04.702Z,1018.82
2018-12-15T05:09:04.722Z,1018.85
2018-12-15T05:10:04.742Z,1018.82
2018-12-15T05:11:04.765Z,1018.85
2018-12-15T05:12:04.785Z,1018.79
2018-12-15T05:13:04.805Z,1018.79
2018-12-15T05:14:04.825Z,1018.80
2018-12-15T05:15:04.845Z,1018.79
2018-12-15T05:16:04.870Z,1018.76
2018-12-15T05:17:04.888Z,1018.74
2018-12-15T05:18:04.911Z,1018.75
2018-12-15T05:19:04.933Z,1018.75
2018-12-15T05:20:04.955Z,1018.76
2018-12-15T05:21:04.975Z,1018.83
2018-12-15T05:22:04.992Z,1018.80
2018-12-15T05:23:05.017Z,1018.84
2018-12-15T05:24:05.036Z,1018.85
2018-12-15T05:25:05.060Z,1018.88
2018-12-15T05:26:05.079Z,1018.86
2018-12-15T05:27:05.097Z,1018.91
2018-12-15T05:28:05.120Z,1018.90
2018-12-15T05:29:05.143Z,1018.86
2018-12-15T05:30:05.164Z,1018.91
2018-12-15T05:31:05.182Z,1018.90
2018-12-15T05:32:05.205Z,1018.88
2018-12-15T05:33:05.225Z,1018.93
2018-12-15T05:34:05.249Z,1018.87
2018-12-15T05:35:05.270Z,1018.83
2018-12-15T05:36:05.289Z,1018.80
2018-12-15T05:37:05.312Z,1018.80
2018-12-15T05:38:05.329Z,1018.87
2018-12-15T05:39:05.353Z,1018.86
2018-12-15T05:40:05.374Z,1018.85
2018-12-15T05:41:05.403Z,1018.90
2018-12-15T05:42:05.414Z,1018.87
2018-12-15T05:43:05.439Z,1018.91
2018-12-15T05:44:05.460Z,1018.93
2018-12-15T05:45:05.480Z,1018.86
2018-12-15T05:46:05.522Z,1018.86
2018-12-15T05:47:05.520Z,1018.84
2018-12-15T05:48:05.541Z,1018.86
2018-12-15T05:49:05.561Z,1018.83
2018-12-15T05:50:05.585Z,1018.86
2018-12-15T05:51:05.603Z,1018.83
2018-12-15T05:52:05.626Z,1018.87
2018-12-15T05:53:05.646Z,1018.85
2018-12-15T05:54:05.667Z,1018.84
2018-12-15T05:55:05.694Z,1018.84
2018-12-15T05:56:05.709Z,1018.84
2018-12-15T05:57:05.730Z,1018.88
2018-12-15T05:58:05.753Z,1018.86
2018-12-15T05:59:05.775Z,1018.83
2018-12-15T06:00:05.796Z,1018.85
2018-12-15T06:01:05.822Z,1018.81
2018-12-15T06:02:05.834Z,1018.79
2018-12-15T06:03:05.858Z,1018.82
2018-12-15T06:04:05.877Z,1018.84
2018-12-15T06:05:05.904Z,1018.82
2018-12-15T06:06:05.922Z,1018.80
2018-12-15T06:07:05.943Z,1018.84
2018-12-15T06:08:05.965Z,1018.81
2018-12-15T06:09:05.984Z,1018.82
2018-12-15T06:10:06.005Z,1018.87
2018-12-15T06:11:06.025Z,1018.79
2018-12-15T06:12:06.049Z,1018.80
2018-12-15T06:13:06.070Z,1018.81
2018-12-15T06:14:06.090Z,1018.77
2018-12-15T06:15:06.111Z,1018.79
2018-12-15T06:16:06.133Z,1018.80
2018-12-15T06:17:06.154Z,1018.79
2018-12-15T06:18:06.175Z,1018.84
2018-12-15T06:19:06.193Z,1018.80
2018-12-15T06:20:06.228Z,1018.80
2018-12-15T06:21:06.235Z,1018.81
2018-12-15T06:22:06.256Z,1018.83
2018-12-15T06:23:06.278Z,1018.85
2018-12-15T06:24:06.299Z,1018.83
2018-12-15T06:25:06.323Z,1018.79
2018-12-15T06:26:06.342Z,1018.88
2018-12-15T06:27:06.361Z,1018.84
2018-12-15T06:28:06.383Z,1018.90
2018-12-15T06:29:06.406Z,1018.92
2018-12-15T06:30:06.427Z,1018.90
2018-12-15T06:31:06.446Z,1018.88
2018-12-15T06:32:06.469Z,1018.92
2018-12-15T06:33:06.490Z,1018.89
2018-12-15T06:34:06.510Z,1018.90
2018-12-15T06:35:06.532Z,1018.88
2018-12-15T06:36:06.550Z,1018.89
2018-12-15T06:37:06.574Z,1018.88
2018-12-15T06:38:06.591Z,1018.90
2018-12-15T06:39:06.615Z,1018.89
2018-12-15T06:40:06.636Z,1018.89
2018-12-15T06:41:06.655Z,1018.88
2018-12-15T06:42:06.676Z,1018.89
2018-12-15T06:43:06.699Z,1018.82
2018-12-15T06:44:06.720Z,1018.90
2018-12-15T06:45:06.742Z,1018.86
2018-12-15T06:46:06.763Z,1018.77
2018-12-15T06:47:06.780Z,1018.76
2018-12-15T06:48:06.804Z,1018.78
2018-12-15T06:49:06.825Z,1018.75
2018-12-15T06:50:06.843Z,1018.77
2018-12-15T06:51:06.865Z,1018.83
2018-12-15T06:52:06.886Z,1018.74
2018-12-15T06:53:06.907Z,1018.77
2018-12-15T06:54:06.926Z,1018.75
2018-12-15T06:55:06.952Z,1018.74
2018-12-15T06:56:06.974Z,1018.82
2018-12-15T06:57:07.943Z,1018.79
2018-12-15T06:58:07.014Z,1018.79
2018-12-15T06:59:07.032Z,1018.84
2018-12-15T07:00:07.053Z,1018.86
2018-12-15T07:01:07.076Z,1018.90
2018-12-15T07:02:07.098Z,1018.90
2018-12-15T07:03:07.118Z,1018.86
2018-12-15T07:04:07.137Z,1018.86
2018-12-15T07:05:07.158Z,1018.91
2018-12-15T07:06:07.179Z,1018.94
2018-12-15T07:07:07.202Z,1018.92
2018-12-15T07:08:07.223Z,1018.89
2018-12-15T07:09:07.242Z,1018.90
2018-12-15T07:10:07.266Z,1018.83
2018-12-15T07:11:07.283Z,1018.93
2018-12-15T07:12:07.307Z,1018.81
2018-12-15T07:13:07.326Z,1018.91
2018-12-15T07:14:07.346Z,1018.83
2018-12-15T07:15:07.370Z,1018.90
2018-12-15T07:16:07.392Z,1018.83
2018-12-15T07:17:07.410Z,1018.81
2018-12-15T07:18:07.429Z,1018.83
2018-12-15T07:19:07.451Z,1018.82
2018-12-15T07:20:07.475Z,1018.82
2018-12-15T07:21:07.496Z,1018.86
2018-12-15T07:22:07.514Z,1018.85
2018-12-15T07:23:07.535Z,1018.90
2018-12-15T07:24:07.558Z,1018.96
2018-12-15T07:25:07.578Z,1018.87
2018-12-15T07:26:07.598Z,1018.92
2018-12-15T07:27:07.623Z,1018.90
2018-12-15T07:28:07.640Z,1018.87
2018-12-15T07:29:07.664Z,1018.88
2018-12-15T07:30:07.682Z,1018.89
2018-12-15T07:31:07.705Z,1018.87
2018-12-15T07:32:07.725Z,1018.97
2018-12-15T07:33:07.747Z,1018.89
2018-12-15T07:34:07.766Z,1018.87
2018-12-15T07:35:07.792Z,1018.92
2018-12-15T07:36:07.814Z,1018.94
2018-12-15T07:37:07.844Z,1018.94
2018-12-15T07:38:07.851Z,1018.94
2018-12-15T07:39:07.873Z,1018.95
2018-12-15T07:40:07.894Z,1018.91
2018-12-15T07:41:07.916Z,1018.95
2018-12-15T07:42:07.934Z,1018.97
2018-12-15T07:43:07.955Z,1019.02
2018-12-15T07:44:07.976Z,1019.01
2018-12-15T07:45:07.998Z,1019.01
2018-12-15T07:46:08.019Z,1018.99
2018-12-15T07:47:08.038Z,1018.96
2018-12-15T07:48:08.063Z,1018.99
2018-12-15T07:49:08.084Z,1019.00
2018-12-15T07:50:08.101Z,1019.02
2018-12-15T07:51:08.124Z,1018.99
2018-12-15T07:52:08.218Z,1018.99
2018-12-15T07:53:08.165Z,1019.05
2018-12-15T07:54:08.188Z,1019.03
2018-12-15T07:55:08.206Z,1019.01
2018-12-15T07:56:08.230Z,1018.95
2018-12-15T07:57:08.251Z,1018.92
2018-12-15T07:58:08.269Z,1018.94
2018-12-15T07:59:08.293Z,1018.96
2018-12-15T08:00:08.311Z,1018.99
2018-12-15T08:01:08.331Z,1019.01
2018-12-15T08:02:08.357Z,1018.99
2018-12-15T08:03:08.381Z,1019.03
2018-12-15T08:04:08.396Z,1019.02
2018-12-15T08:05:08.417Z,1019.06
2018-12-15T08:06:08.439Z,1019.03
2018-12-15T08:07:08.458Z,1019.03
2018-12-15T08:08:08.486Z,1019.02
2018-12-15T08:09:08.504Z,1019.02
2018-12-15T08:10:08.521Z,1019.04
2018-12-15T08:11:08.543Z,1019.02
2018-12-15T08:12:08.564Z,1019.06
2018-12-15T08:13:08.588Z,1019.10
2018-12-15T08:14:08.605Z,1019.09
2018-12-15T08:15:08.628Z,1019.06
2018-12-15T08:16:08.651Z,1019.08
2018-12-15T08:17:08.672Z,1019.06
2018-12-15T08:18:08.692Z,1019.08
2018-12-15T08:19:08.712Z,1019.08
2018-12-15T08:20:08.735Z,1019.08
2018-12-15T08:21:08.756Z,1019.04
2018-12-15T08:22:08.775Z,1019.03
2018-12-15T08:23:08.803Z,1019.04
2018-12-15T08:24:08.819Z,1019.05
2018-12-15T08:25:08.841Z,1019.08
2018-12-15T08:26:08.859Z,1019.13
2018-12-15T08:27:08.882Z,1019.09
2018-12-15T08:28:08.904Z,1019.05
2018-12-15T08:29:08.925Z,1019.12
2018-12-15T08:30:08.944Z,1019.10
2018-12-15T08:31:08.966Z,1019.10
2018-12-15T08:32:08.989Z,1019.15
2018-12-15T08:33:09.007Z,1019.12
2018-12-15T08:34:09.027Z,1019.08
2018-12-15T08:35:09.050Z,1019.15
2018-12-15T08:36:09.072Z,1019.11
2018-12-15T08:37:09.095Z,1019.08
2018-12-15T08:38:09.112Z,1019.15
2018-12-15T08:39:09.135Z,1019.18
2018-12-15T08:40:09.153Z,1019.17
2018-12-15T08:41:09.174Z,1019.17
2018-12-15T08:42:09.198Z,1019.18
2018-12-15T08:43:09.217Z,1019.16
2018-12-15T08:44:09.240Z,1019.15
2018-12-15T08:45:09.264Z,1019.17
2018-12-15T08:46:09.282Z,1019.12
2018-12-15T08:47:09.303Z,1019.19
2018-12-15T08:48:09.323Z,1019.16
2018-12-15T08:49:09.352Z,1019.18
2018-12-15T08:50:09.366Z,1019.20
2018-12-15T08:51:09.385Z,1019.22
2018-12-15T08:52:09.408Z,1019.22
2018-12-15T08:53:09.430Z,1019.19
2018-12-15T08:54:09.450Z,1019.17
2018-12-15T08:55:09.491Z,1019.16
2018-12-15T08:56:09.491Z,1019.20
2018-12-15T08:57:09.514Z,1019.19
2018-12-15T08:58:09.532Z,1019.19
2018-12-15T08:59:09.556Z,1019.21
2018-12-15T09:00:09.577Z,1019.25
2018-12-15T09:01:09.601Z,1019.25
2018-12-15T09:02:09.617Z,1019.31
2018-12-15T09:03:09.639Z,1019.27
2018-12-15T09:04:09.665Z,1019.24
2018-12-15T09:05:09.681Z,1019.29
2018-12-15T09:06:09.702Z,1019.30
2018-12-15T09:07:09.726Z,1019.29
2018-12-15T09:08:09.747Z,1019.32
2018-12-15T09:09:09.769Z,1019.35
2018-12-15T09:10:09.786Z,1019.37
2018-12-15T09:11:09.808Z,1019.33
2018-12-15T09:12:09.830Z,1019.35
2018-12-15T09:13:09.854Z,1019.31
2018-12-15T09:14:09.872Z,1019.37
2018-12-15T09:15:09.900Z,1019.42
2018-12-15T09:16:09.915Z,1019.39
2018-12-15T09:17:09.937Z,1019.36
2018-12-15T09:18:09.959Z,1019.32
2018-12-15T09:19:11.377Z,1019.38
2018-12-15T09:20:10.002Z,1019.37
2018-12-15T09:21:10.022Z,1019.36
2018-12-15T09:22:11.600Z,1019.37
2018-12-15T09:23:10.066Z,1019.39
2018-12-15T09:24:10.085Z,1019.38
2018-12-15T09:25:10.307Z,1019.41
2018-12-15T09:26:10.327Z,1019.40
2018-12-15T09:27:10.298Z,1019.38
2018-12-15T09:28:10.322Z,1019.39
2018-12-15T09:29:10.346Z,1019.37
2018-12-15T09:30:10.212Z,1019.35
2018-12-15T09:31:10.333Z,1019.40
2018-12-15T09:32:10.257Z,1019.36
2018-12-15T09:33:10.275Z,1019.34
2018-12-15T09:34:10.347Z,1019.39
2018-12-15T09:35:10.321Z,1019.35
2018-12-15T09:36:10.342Z,1019.33
2018-12-15T09:37:10.364Z,1019.31
2018-12-15T09:38:10.381Z,1019.34
2018-12-15T09:39:10.405Z,1019.34
2018-12-15T09:40:10.426Z,1019.32
2018-12-15T09:41:10.447Z,1019.31
2018-12-15T09:42:10.469Z,1019.39
2018-12-15T09:43:10.489Z,1019.40
2018-12-15T09:44:10.519Z,1019.38
2018-12-15T09:45:10.530Z,1019.37
2018-12-15T09:46:10.551Z,1019.40
2018-12-15T09:47:10.572Z,1019.37
2018-12-15T09:48:10.594Z,1019.36
2018-12-15T09:49:10.615Z,1019.34
2018-12-15T09:50:10.638Z,1019.35
2018-12-15T09:51:10.659Z,1019.33
2018-12-15T09:52:10.680Z,1019.32
2018-12-15T09:53:10.702Z,1019.31
2018-12-15T09:54:10.724Z,1019.27
2018-12-15T09:55:10.743Z,1019.29
2018-12-15T09:56:10.766Z,1019.27
2018-12-15T09:57:10.785Z,1019.27
2018-12-15T09:58:10.808Z,1019.27
2018-12-15T09:59:10.829Z,1019.33
2018-12-15T10:00:10.857Z,1019.29
2018-12-15T10:01:10.869Z,1019.32
2018-12-15T10:02:11.040Z,1019.29
2018-12-15T10:03:10.914Z,1019.27
2018-12-15T10:04:10.934Z,1019.28
2018-12-15T10:05:10.956Z,1019.29
2018-12-15T10:06:10.977Z,1019.23
2018-12-15T10:07:10.999Z,1019.26
2018-12-15T10:08:11.024Z,1019.24
2018-12-15T10:09:11.040Z,1019.31
2018-12-15T10:10:11.063Z,1019.31
2018-12-15T10:11:11.085Z,1019.29
2018-12-15T10:12:11.103Z,1019.25
2018-12-15T10:13:11.129Z,1019.25
2018-12-15T10:14:11.150Z,1019.25
2018-12-15T10:15:11.165Z,1019.29
2018-12-15T10:16:11.190Z,1019.28
2018-12-15T10:17:11.213Z,1019.24
2018-12-15T10:18:11.231Z,1019.19
2018-12-15T10:19:11.253Z,1019.16
2018-12-15T10:20:11.273Z,1019.14
2018-12-15T10:21:11.296Z,1019.16
2018-12-15T10:22:11.316Z,1019.14
2018-12-15T10:23:11.338Z,1019.14
2018-12-15T10:24:11.356Z,1019.10
2018-12-15T10:25:11.378Z,1019.09
2018-12-15T10:26:11.402Z,1019.06
2018-12-15T10:27:11.420Z,1019.03
2018-12-15T10:28:11.441Z,1019.06
2018-12-15T10:29:11.465Z,1019.01
2018-12-15T10:30:11.483Z,1019.02
2018-12-15T10:31:11.504Z,1019.03
2018-12-15T10:32:11.535Z,1019.05
2018-12-15T10:33:11.552Z,1018.99
2018-12-15T10:34:11.569Z,1018.96
2018-12-15T10:35:11.592Z,1018.93
2018-12-15T10:36:11.610Z,1018.88
2018-12-15T10:37:11.691Z,1018.84
2018-12-15T10:38:11.651Z,1018.90
2018-12-15T10:39:11.672Z,1018.86
2018-12-15T10:40:11.702Z,1018.86
2018-12-15T10:41:11.718Z,1018.79
2018-12-15T10:42:11.735Z,1018.85
2018-12-15T10:43:11.758Z,1018.77
2018-12-15T10:44:11.778Z,1018.72
2018-12-15T10:45:11.831Z,1018.76
2018-12-15T10:46:11.818Z,1018.73
2018-12-15T10:47:11.843Z,1018.73
2018-12-15T10:48:11.864Z,1018.75
2018-12-15T10:49:11.885Z,1018.80
2018-12-15T10:50:11.904Z,1018.71
2018-12-15T10:51:11.924Z,1018.77
2018-12-15T10:52:11.946Z,1018.72
2018-12-15T10:53:11.969Z,1018.74
2018-12-15T10:54:11.990Z,1018.66
2018-12-15T10:55:12.011Z,1018.62
2018-12-15T10:56:12.032Z,1018.63
2018-12-15T10:57:12.053Z,1018.64
2018-12-15T10:58:12.143Z,1018.63
2018-12-15T10:59:12.093Z,1018.66
2018-12-15T11:00:12.114Z,1018.61
2018-12-15T11:01:12.137Z,1018.66
2018-12-15T11:02:12.158Z,1018.58
2018-12-15T11:03:12.177Z,1018.62
2018-12-15T11:04:12.198Z,1018.55
2018-12-15T11:05:12.220Z,1018.61
2018-12-15T11:06:12.240Z,1018.59
2018-12-15T11:07:12.263Z,1018.58
2018-12-15T11:08:12.283Z,1018.54
2018-12-15T11:09:12.304Z,1018.53
2018-12-15T11:10:12.324Z,1018.54
2018-12-15T11:11:12.345Z,1018.51
2018-12-15T11:12:12.367Z,1018.52
2018-12-15T11:13:12.389Z,1018.52
2018-12-15T11:14:12.411Z,1018.49
2018-12-15T11:15:12.430Z,1018.51
2018-12-15T11:16:12.452Z,1018.44
2018-12-15T11:17:12.472Z,1018.46
2018-12-15T11:18:12.494Z,1018.47
2018-12-15T11:19:12.516Z,1018.44
2018-12-15T11:20:12.538Z,1018.48
2018-12-15T11:21:12.558Z,1018.47
2018-12-15T11:22:12.576Z,1018.44
2018-12-15T11:23:12.599Z,1018.46
2018-12-15T11:24:12.619Z,1018.44
2018-12-15T11:25:12.640Z,1018.44
2018-12-15T11:26:12.660Z,1018.37
2018-12-15T11:27:12.681Z,1018.40
2018-12-15T11:28:12.705Z,1018.30
2018-12-15T11:29:12.726Z,1018.38
2018-12-15T11:30:12.749Z,1018.39
2018-12-15T11:31:12.766Z,1018.33
2018-12-15T11:32:12.787Z,1018.31
2018-12-15T11:33:12.811Z,1018.29
2018-12-15T11:34:12.831Z,1018.29
2018-12-15T11:35:12.852Z,1018.38
2018-12-15T11:36:12.873Z,1018.26
2018-12-15T11:37:12.894Z,1018.29
2018-12-15T11:38:12.914Z,1018.24
2018-12-15T11:39:12.936Z,1018.25
2018-12-15T11:40:12.955Z,1018.16
2018-12-15T11:41:12.976Z,1018.24
2018-12-15T11:42:12.995Z,1018.18
2018-12-15T11:43:13.017Z,1018.19
2018-12-15T11:44:13.040Z,1018.14
2018-12-15T11:45:13.060Z,1018.18
2018-12-15T11:46:13.080Z,1018.15
2018-12-15T11:47:13.101Z,1018.19
2018-12-15T11:48:13.394Z,1018.16
2018-12-15T11:49:13.146Z,1018.16
2018-12-15T11:50:13.165Z,1018.13
2018-12-15T11:51:13.185Z,1018.04
2018-12-15T11:52:13.207Z,1018.03
2018-12-15T11:53:13.227Z,1018.08
2018-12-15T11:54:13.252Z,1018.08
2018-12-15T11:55:13.271Z,1017.98
2018-12-15T11:56:13.292Z,1017.99
2018-12-15T11:57:13.314Z,1017.96
2018-12-15T11:58:13.332Z,1018.00
2018-12-15T11:59:13.355Z,1017.98
2018-12-15T12:00:13.375Z,1017.99
2018-12-15T12:01:13.397Z,1017.99
2018-12-15T12:02:13.414Z,1017.95
2018-12-15T12:03:13.436Z,1018.02
2018-12-15T12:04:13.460Z,1017.98
2018-12-15T12:05:13.483Z,1017.99
2018-12-15T12:06:13.498Z,1017.94